Time;durP1;ratioP1;P1;durP2;ratioP2;P2;SDS_P1;SDS_P2;PMS_P1;PMS_P2;Temp;Humidity;BMP_temperature;BMP_pressure;BME280_temperature;BME280_humidity;BME280_pressure;Samples;Min_cycle;Max_cycle;Signal;HPM_P1;HPM_P2
2022/03/13 00:09:43;;;;;;;40.80;24.90;;;;;;;-3.51;44.67;100648.27;432382;1270;143362;-64
2022/03/13 00:19:49;;;;;;;56.20;31.00;;;;;;;-3.53;45.41;100651.99;432746;1270;141380;-65
2022/03/13 00:29:55;;;;;;;59.80;31.80;;;;;;;-3.90;46.76;100647.13;432636;1270;142615;-65
2022/03/13 00:40:01;;;;;;;56.40;31.30;;;;;;;-4.18;47.46;100646.60;431783;1270;142633;-65
2022/03/13 00:50:10;;;;;;;54.30;32.20;;;;;;;-4.46;48.47;100635.44;432444;1270;142446;-65
2022/03/13 01:00:17;;;;;;;60.30;31.40;;;;;;;-4.77;49.56;100620.61;430810;1270;141731;-64
2022/03/13 01:10:24;;;;;;;53.00;29.80;;;;;;;-5.04;49.99;100624.83;431530;1269;142071;-65
2022/03/13 01:20:30;;;;;;;46.10;24.90;;;;;;;-5.08;49.55;100634.14;431838;1270;142443;-69
2022/03/13 01:30:36;;;;;;;52.30;28.30;;;;;;;-5.06;49.63;100625.30;431467;1270;141290;-65
2022/03/13 01:40:42;;;;;;;52.70;28.00;;;;;;;-5.12;50.15;100624.51;433387;1270;141063;-64
2022/03/13 01:50:49;;;;;;;51.30;28.50;;;;;;;-5.25;51.01;100626.52;431621;1270;142351;-65
2022/03/13 02:00:56;;;;;;;48.40;29.90;;;;;;;-5.41;51.49;100621.13;432370;1269;141515;-65
2022/03/13 02:11:03;;;;;;;50.00;28.70;;;;;;;-5.56;51.99;100624.77;432844;1270;142009;-64
2022/03/13 02:21:09;;;;;;;55.30;29.50;;;;;;;-5.69;52.60;100614.96;433164;1270;141400;-65
2022/03/13 02:31:18;;;;;;;38.30;24.10;;;;;;;-5.80;52.87;100608.80;432880;1270;143513;-67
2022/03/13 02:41:26;;;;;;;39.00;24.60;;;;;;;-5.60;52.13;100607.46;431828;1270;141780;-65
2022/03/13 02:51:32;;;;;;;44.00;23.80;;;;;;;-5.29;51.32;100607.16;432059;1270;142304;-65
2022/03/13 03:01:40;;;;;;;37.40;23.50;;;;;;;-5.14;51.13;100615.08;432233;1270;141274;-65
2022/03/13 03:11:46;;;;;;;49.70;27.40;;;;;;;-5.08;50.93;100619.63;431660;1270;143074;-65
2022/03/13 03:21:53;;;;;;;55.20;32.00;;;;;;;-5.24;52.04;100621.41;432332;1270;141018;-65
2022/03/13 03:31:59;;;;;;;44.00;27.80;;;;;;;-5.44;52.46;100614.06;432224;1270;141997;-65
2022/03/13 03:42:06;;;;;;;66.10;34.50;;;;;;;-5.57;52.83;100609.04;431256;1270;140873;-63
2022/03/13 03:52:12;;;;;;;63.10;37.30;;;;;;;-5.78;53.47;100615.31;431715;1271;141553;-64
2022/03/13 04:02:16;;;;;;;;;;;;;;;-5.98;54.19;100612.38;432324;1270;143195;-64
2022/03/13 04:12:23;;;;;;;48.70;27.50;;;;;;;-6.09;54.29;100608.41;431725;1270;129745;-65
2022/03/13 04:22:29;;;;;;;69.00;41.50;;;;;;;-5.96;54.16;100599.27;432183;1270;140911;-60
2022/03/13 04:32:35;;;;;;;64.40;40.10;;;;;;;-6.14;54.70;100603.04;431891;1269;142979;-63
2022/03/13 04:42:41;;;;;;;64.00;36.40;;;;;;;-6.30;55.18;100606.79;431850;1269;141245;-63
2022/03/13 04:52:45;;;;;;;;;;;;;;;-6.44;55.67;100609.23;432208;1270;141321;-67
2022/03/13 05:02:51;;;;;;;61.70;37.80;;;;;;;-6.54;56.34;100603.56;431606;1270;127578;-64
2022/03/13 05:12:58;;;;;;;58.70;34.30;;;;;;;-6.60;56.64;100604.46;432156;1270;142691;-64
2022/03/13 05:23:05;;;;;;;64.50;34.50;;;;;;;-6.57;57.00;100598.90;432516;1270;142834;-64
2022/03/13 05:33:10;;;;;;;59.10;34.00;;;;;;;-6.39;57.19;100611.05;432379;1270;142491;-64
2022/03/13 05:43:16;;;;;;;;;;;;;;;-5.93;57.05;100623.05;432977;1271;210659;-64
2022/03/13 05:53:21;;;;;;;49.00;30.70;;;;;;;-5.29;56.89;100625.25;432389;1271;127685;-65
2022/03/13 06:03:27;;;;;;;49.50;31.70;;;;;;;-0.85;54.53;100612.41;430480;1271;141887;-66
2022/03/13 06:13:33;;;;;;;52.80;33.10;;;;;;;7.08;45.78;100603.00;431587;1270;141533;-65
2022/03/13 06:23:39;;;;;;;47.70;31.00;;;;;;;12.69;38.40;100596.45;432986;1270;142625;-66
2022/03/13 06:33:45;;;;;;;46.20;33.70;;;;;;;16.59;33.16;100576.61;432721;1270;141606;-66
2022/03/13 06:43:51;;;;;;;45.30;35.40;;;;;;;19.99;29.42;100577.77;432181;1271;141714;-66
2022/03/13 06:53:57;;;;;;;38.90;30.90;;;;;;;23.04;26.28;100579.27;432272;1270;142484;-67
2022/03/13 07:04:03;;;;;;;32.50;26.40;;;;;;;25.41;23.84;100583.09;433089;1270;146761;-66
2022/03/13 07:14:09;;;;;;;27.50;24.60;;;;;;;27.68;21.71;100593.07;432148;1270;141120;-67
2022/03/13 07:24:14;;;;;;;25.60;22.80;;;;;;;28.35;19.89;100584.97;432371;1269;141934;-65
2022/03/13 07:34:19;;;;;;;;;;;;;;;28.79;18.38;100589.42;432152;1270;143628;-66
2022/03/13 07:44:24;;;;;;;21.80;19.20;;;;;;;29.79;17.55;100593.34;431780;1270;127560;-66
2022/03/13 07:54:30;;;;;;;22.10;19.60;;;;;;;30.66;16.83;100600.41;431959;1270;141048;-67
2022/03/13 08:04:36;;;;;;;19.20;17.20;;;;;;;31.43;16.12;100597.23;433569;1270;143582;-65
2022/03/13 08:14:42;;;;;;;18.10;16.00;;;;;;;32.21;14.97;100593.26;432097;1269;140075;-65
2022/03/13 08:24:47;;;;;;;18.00;16.20;;;;;;;31.85;14.72;100598.36;431644;1270;141735;-77
2022/03/13 08:34:53;;;;;;;15.50;13.90;;;;;;;32.35;14.28;100596.65;435509;1270;142270;-75
2022/03/13 08:44:59;;;;;;;13.30;11.80;;;;;;;32.47;13.95;100597.41;434728;1270;142982;-79
2022/03/13 08:55:08;;;;;;;10.90;10.00;;;;;;;32.59;13.25;100600.43;435157;1270;142158;-78
2022/03/13 09:05:14;;;;;;;11.40;10.30;;;;;;;32.36;12.79;100590.34;435193;1269;143033;-76
2022/03/13 09:15:20;;;;;;;9.70;8.80;;;;;;;29.77;12.55;100583.69;434624;1270;140852;-74
2022/03/13 09:25:26;;;;;;;12.20;10.30;;;;;;;21.05;13.99;100595.10;434045;1269;141579;-76
2022/03/13 09:35:32;;;;;;;12.70;8.40;;;;;;;16.54;15.44;100609.55;434885;1270;141166;-75
2022/03/13 09:45:38;;;;;;;10.80;7.90;;;;;;;13.61;16.50;100616.97;434088;1270;141215;-76
2022/03/13 09:55:47;;;;;;;8.30;7.10;;;;;;;11.76;17.46;100625.83;435185;1269;142507;-75
2022/03/13 10:05:55;;;;;;;8.00;5.60;;;;;;;10.45;18.49;100627.99;434662;1270;142541;-75
2022/03/13 10:16:01;;;;;;;;;;;;;;;9.39;19.00;100624.64;434068;1269;142580;-76
2022/03/13 10:26:11;;;;;;;12.20;7.80;;;;;;;8.83;19.57;100616.45;435164;1268;128316;-74
2022/03/13 10:36:19;;;;;;;14.30;8.20;;;;;;;8.41;20.26;100616.86;433248;1270;141112;-74
2022/03/13 10:46:32;;;;;;;10.70;8.60;;;;;;;8.15;20.69;100604.94;432594;1270;140847;-77
2022/03/13 10:56:44;;;;;;;14.00;9.30;;;;;;;7.99;21.46;100593.67;434588;1269;141495;-76
2022/03/13 11:06:57;;;;;;;13.10;9.20;;;;;;;7.90;22.13;100590.86;433832;1270;140924;-74
2022/03/13 11:17:08;;;;;;;12.40;9.80;;;;;;;7.83;22.58;100591.09;434958;1270;140322;-75
2022/03/13 11:27:17;;;;;;;13.40;8.90;;;;;;;7.77;23.00;100578.93;434323;1270;141553;-76
2022/03/13 11:37:36;;;;;;;13.70;9.30;;;;;;;7.89;23.37;100569.27;434409;1270;141507;-74
2022/03/13 11:47:44;;;;;;;13.60;8.60;;;;;;;7.97;23.46;100564.78;435223;1269;141267;-76
2022/03/13 11:58:01;;;;;;;11.10;8.70;;;;;;;7.99;23.48;100555.27;431578;1268;3240401;-66
2022/03/13 12:08:08;;;;;;;8.10;6.60;;;;;;;8.01;22.95;100544.73;433473;1270;141160;-70
2022/03/13 12:18:29;;;;;;;10.70;6.90;;;;;;;8.00;22.63;100537.64;433727;1270;141037;-68
2022/03/13 12:28:36;;;;;;;9.30;6.60;;;;;;;8.00;22.14;100527.17;434852;1269;140869;-68
2022/03/13 12:38:46;;;;;;;9.40;7.10;;;;;;;8.05;22.11;100518.96;432905;1270;140551;-67
2022/03/13 12:48:55;;;;;;;12.00;6.60;;;;;;;7.97;21.99;100518.05;432752;1269;141632;-69
2022/03/13 12:59:02;;;;;;;7.70;6.10;;;;;;;7.96;21.71;100513.40;432868;1269;141388;-67
2022/03/13 13:09:07;;;;;;;9.70;7.40;;;;;;;8.06;21.44;100505.13;433609;1270;141172;-69
2022/03/13 13:19:13;;;;;;;11.40;9.50;;;;;;;8.12;21.35;100508.42;434432;1270;142424;-69
2022/03/13 13:29:33;;;;;;;12.40;9.10;;;;;;;8.12;21.61;100504.05;435591;1269;141267;-69
2022/03/13 13:39:39;;;;;;;11.80;9.10;;;;;;;8.11;22.13;100508.42;432535;1270;141731;-69
2022/03/13 13:49:45;;;;;;;11.90;8.80;;;;;;;8.11;22.88;100511.23;433489;1270;140985;-68
2022/03/13 13:59:51;;;;;;;12.00;10.40;;;;;;;8.07;23.39;100509.98;433530;1270;140755;-68
2022/03/13 14:10:03;;;;;;;11.90;9.30;;;;;;;8.07;23.87;100513.83;433353;1270;143742;-68
2022/03/13 14:20:11;;;;;;;13.20;10.10;;;;;;;8.14;24.16;100514.97;433438;1268;141823;-67
2022/03/13 14:30:17;;;;;;;12.00;10.40;;;;;;;8.19;24.31;100518.27;433984;1270;141352;-67
2022/03/13 14:40:23;;;;;;;16.70;12.00;;;;;;;8.14;24.60;100512.85;433662;1270;142826;-68
2022/03/13 14:50:29;;;;;;;16.10;12.30;;;;;;;8.13;25.01;100511.70;432244;1270;141030;-68
2022/03/13 15:00:36;;;;;;;16.50;14.30;;;;;;;8.06;25.30;100517.20;432928;1269;142179;-69
2022/03/13 15:10:42;;;;;;;19.40;15.10;;;;;;;7.96;25.59;100520.55;432887;1270;141169;-68
2022/03/13 15:20:55;;;;;;;20.20;15.70;;;;;;;7.83;25.99;100523.63;432335;1270;147445;-68
2022/03/13 15:31:02;;;;;;;17.90;15.00;;;;;;;7.72;26.28;100527.35;433533;1270;141394;-67
2022/03/13 15:41:08;;;;;;;18.60;15.00;;;;;;;7.58;26.73;100536.74;434332;1270;142555;-67
2022/03/13 15:51:13;;;;;;;18.00;14.30;;;;;;;7.39;27.31;100534.10;432512;1270;140868;-68
2022/03/13 16:01:19;;;;;;;18.60;14.90;;;;;;;7.14;27.91;100532.70;433021;1269;141106;-67
2022/03/13 16:11:26;;;;;;;17.60;13.50;;;;;;;6.85;28.57;100535.41;432088;1269;140362;-68
2022/03/13 16:21:31;;;;;;;18.60;15.40;;;;;;;6.52;29.16;100542.05;431033;1269;146805;-68
2022/03/13 16:31:37;;;;;;;17.30;15.30;;;;;;;6.11;29.68;100549.39;432592;1270;141210;-69
2022/03/13 16:41:43;;;;;;;21.40;16.60;;;;;;;5.84;30.46;100556.05;432154;1270;141103;-68
2022/03/13 16:51:49;;;;;;;25.80;19.20;;;;;;;5.52;31.08;100556.77;433218;1270;144954;-68
2022/03/13 17:01:55;;;;;;;34.80;24.40;;;;;;;5.20;31.74;100563.53;434148;1270;141142;-68
2022/03/13 17:12:01;;;;;;;34.30;25.10;;;;;;;5.05;32.69;100570.85;432324;1270;141313;-67
2022/03/13 17:22:07;;;;;;;32.70;25.80;;;;;;;4.83;33.15;100579.89;430539;1270;140457;-71
2022/03/13 17:32:13;;;;;;;32.60;24.10;;;;;;;4.59;33.64;100584.77;430667;1270;141885;-71
2022/03/13 17:42:19;;;;;;;36.10;26.50;;;;;;;4.36;34.28;100588.60;429943;1270;143528;-71
2022/03/13 17:52:25;;;;;;;32.30;24.60;;;;;;;4.27;34.48;100591.21;431118;1269;141726;-69
2022/03/13 18:02:31;;;;;;;29.90;21.50;;;;;;;4.13;34.80;100605.20;431522;1269;142115;-66
2022/03/13 18:12:37;;;;;;;31.80;23.10;;;;;;;4.12;35.48;100616.52;434541;1270;140102;-74
2022/03/13 18:22:43;;;;;;;40.50;25.00;;;;;;;4.08;36.04;100622.64;436407;1268;141669;-74
2022/03/13 18:32:49;;;;;;;31.90;22.30;;;;;;;3.91;36.44;100628.53;434746;1270;140964;-74
2022/03/13 18:42:55;;;;;;;31.60;23.50;;;;;;;3.71;37.52;100638.43;434097;1270;141123;-74
2022/03/13 18:53:01;;;;;;;32.20;22.40;;;;;;;3.53;38.68;100653.11;434783;1270;141051;-74
2022/03/13 19:03:08;;;;;;;31.40;21.30;;;;;;;3.42;39.64;100655.73;435098;1270;141635;-74
2022/03/13 19:13:14;;;;;;;30.70;19.20;;;;;;;3.23;41.03;100666.95;435167;1270;141487;-74
2022/03/13 19:23:27;;;;;;;25.90;18.40;;;;;;;3.01;42.25;100669.21;434784;1270;141705;-73
2022/03/13 19:33:33;;;;;;;27.00;19.30;;;;;;;2.77;43.36;100670.26;433821;1270;160322;-73
2022/03/13 19:43:39;;;;;;;28.70;19.10;;;;;;;2.53;44.04;100671.27;435107;1270;141118;-75
2022/03/13 19:53:52;;;;;;;28.70;18.30;;;;;;;2.30;45.25;100682.10;434717;1270;142075;-72
2022/03/13 20:04:00;;;;;;;27.90;18.00;;;;;;;2.09;46.23;100687.18;434190;1270;142046;-73
2022/03/13 20:14:12;;;;;;;27.20;17.20;;;;;;;1.88;47.24;100683.09;435206;1270;141312;-73
2022/03/13 20:24:23;;;;;;;22.60;15.50;;;;;;;1.69;47.85;100693.30;434298;1270;141444;-73
2022/03/13 20:34:30;;;;;;;27.70;18.50;;;;;;;1.43;48.84;100698.19;435086;1270;140797;-75
2022/03/13 20:44:38;;;;;;;24.20;16.40;;;;;;;1.17;49.75;100698.73;435616;1270;141653;-75
2022/03/13 20:54:46;;;;;;;27.50;17.30;;;;;;;0.96;50.38;100706.29;434334;1270;140626;-74
2022/03/13 21:04:52;;;;;;;24.40;16.10;;;;;;;0.77;51.14;100714.85;435011;1271;141880;-74
2022/03/13 21:14:57;;;;;;;25.70;17.40;;;;;;;0.63;51.84;100725.44;436333;1270;141062;-73
2022/03/13 21:25:04;;;;;;;31.40;18.10;;;;;;;0.49;52.40;100730.50;433894;1271;142332;-73
2022/03/13 21:35:11;;;;;;;30.00;17.00;;;;;;;0.33;53.28;100733.14;434522;1270;141958;-74
2022/03/13 21:45:15;;;;;;;;;;;;;;;0.18;53.86;100728.36;433601;1271;141603;-74
2022/03/13 21:55:21;;;;;;;29.60;16.90;;;;;;;0.02;54.49;100719.10;435132;1270;129624;-74
2022/03/13 22:05:30;;;;;;;27.00;16.20;;;;;;;-0.10;54.81;100717.92;434287;1269;144342;-72
2022/03/13 22:15:37;;;;;;;28.10;16.90;;;;;;;-0.18;55.34;100708.46;434331;1270;141187;-73
2022/03/13 22:25:41;;;;;;;;;;;;;;;-0.31;55.75;100714.67;433931;1270;142175;-70
2022/03/13 22:35:47;;;;;;;22.10;14.80;;;;;;;-0.39;56.16;100716.41;434717;1270;127193;-74
2022/03/13 22:45:53;;;;;;;23.20;14.00;;;;;;;-0.48;56.63;100718.82;434377;1271;142657;-73
2022/03/13 22:55:59;;;;;;;23.20;14.10;;;;;;;-0.59;56.77;100711.60;434569;1271;142136;-73
2022/03/13 23:06:06;;;;;;;23.90;14.90;;;;;;;-0.74;57.05;100710.38;434530;1270;140470;-73
2022/03/13 23:16:12;;;;;;;23.50;14.20;;;;;;;-0.91;57.67;100714.33;434208;1271;141176;-73
2022/03/13 23:26:18;;;;;;;18.00;14.20;;;;;;;-1.06;57.96;100724.44;435210;1270;142883;-73
2022/03/13 23:36:25;;;;;;;20.30;13.10;;;;;;;-1.20;58.37;100729.39;434075;1269;140977;-73
2022/03/13 23:46:29;;;;;;;;;;;;;;;-1.26;58.76;100732.80;435302;1270;140894;-72
2022/03/13 23:56:36;;;;;;;22.10;14.00;;;;;;;-1.41;59.14;100729.67;434910;1271;127351;-73
